Terminal Aerodrome Forecast
Issued by NWS Quad Cities IA IL

Home | Current Version | Previous Version | Text Only | Print | Product List | Glossary On
Versions: 1 2 3 4 5 6 7 8 9 10 11 12 13 14 15 16 17 18 19 20 21 22 23 24 25 26 27 28 29
000
FTUS43 KDVN 251700
TAFDBQ
TAF
KDBQ 251720Z 2518/2618 05016G25KT 3SM -SN OVC015
     FM252000 01011G18KT P6SM BKN035
     FM260100 34004KT P6SM SCT250
     FM261400 18007KT P6SM BKN070 OVC150=

USA.gov is the U.S. government's official web portal to all federal, state and local government web resources and services.